This is the latest recevied weather packets stored in our database for station/object YO7ZRO-13. If no packets are shown the sender has not sent any weather packets the latest 10 day(s).
| Time | Temp. | Humidity | Pressure | Rain* | Wind** | Luminosity | Snow |
|---|---|---|---|---|---|---|---|
| 1787989542 | 26.11° C | 36% | 1016.8 hPa | - | - | - | - |
| 1787989482 | 26.11° C | 36% | 1016.8 hPa | - | - | - | - |
| 1787989423 | 27.22° C | 35% | 1016.8 hPa | - | - | - | - |
| 1787989362 | 27.22° C | 35% | 1016.8 hPa | - | - | - | - |
| 1787989303 | 27.22° C | 35% | 1016.8 hPa | - | - | - | - |
| 1787989243 | 27.22° C | 35% | 1016.8 hPa | - | - | - | - |
| 1787989183 | 26.67° C | 37% | 1016.7 hPa | - | - | - | - |
| 1787989123 | 26.67° C | 37% | 1016.7 hPa | - | - | - | - |
| 1787989063 | 25.56° C | 38% | 1016.7 hPa | - | - | - | - |
| 1787989003 | 25.56° C | 38% | 1016.7 hPa | - | - | - | - |
| 1787988941 | 25.56° C | 37% | 1016.5 hPa | - | - | - | - |
| 1787988883 | 25.56° C | 37% | 1016.5 hPa | - | - | - | - |
| 1787988823 | 26.11° C | 36% | 1016.5 hPa | - | - | - | - |
| 1787988763 | 26.11° C | 36% | 1016.5 hPa | - | - | - | - |
| 1787988701 | 25° C | 39% | 1016.6 hPa | - | - | - | - |
| 1787988642 | 25° C | 39% | 1016.6 hPa | - | - | - | - |
| 1787988582 | 26.11° C | 37% | 1016.7 hPa | - | - | - | - |
| 1787988523 | 26.11° C | 37% | 1016.7 hPa | - | - | - | - |
| 1787988462 | 26.11° C | 36% | 1016.6 hPa | - | - | - | - |
| 1787988402 | 26.11° C | 36% | 1016.6 hPa | - | - | - | - |
| 1787988342 | 26.11° C | 37% | 1016.6 hPa | - | - | - | - |
| 1787988282 | 26.11° C | 37% | 1016.6 hPa | - | - | - | - |
| 1787988222 | 26.11° C | 37% | 1016.6 hPa | - | - | - | - |
| 1787988163 | 26.11° C | 37% | 1016.6 hPa | - | - | - | - |
| 1787988102 | 26.11° C | 37% | 1016.6 hPa | - | - | - | - |
* Rain since midnight (hover to see other rain measurements)
** Current wind speed in m/s (hover to see current wind gust speed)